Aérodrome :
LOGIN :

S'inscrire | Disclaimer

   EN    FR    IT 

 










Légende :    VFR   VFR Marginal   IFR   IFR Intensif   IFR Très Intensif
Visi : 
Plafond : 
>= 8 km
>= 3000ft
5 à 8 km
1000 à 3000 ft
1500m à 5 km
500 à 1000 ft
800 à 1500m
200 à 500 ft
< 800m
< 200 ft
Symboles :   Orages  Brouillard  Fortes neiges  Fortes précipitations  Vent > 20 kt
SIGMETs :   Divers  Orages  Givrage  Turbulence  Onde Orograph.  Cendres Volcan.






- Altitude de l'aérodrome : 788 ft
- Code IATA : DCM


LFCK - Castres-Mazamet

DERNIER METAR :
  • 271300Z AUTO 14009KT 090V170 CAVOK 27/11 Q1027 TEMPO 13015G25KT

METARs EXPIRÉS :
  • 271230Z AUTO 13011KT 100V160 CAVOK 27/11 Q1027 TEMPO 13015G25KT
  • 271200Z AUTO 13006KT 050V170 CAVOK 27/11 Q1027 TEMPO 13015G25KT
  • 271130Z AUTO VRB07KT CAVOK 27/12 Q1028 TEMPO 13015G25KT
  • 271100Z AUTO VRB07KT CAVOK 26/11 Q1028 NOSIG

TAF TAF LFCK
Valide du 27 à 12h jusqu'au 27 à 21h UTC


271100Z 2712/2721 12012KT CAVOK
TEMPO 2713/2719 13015G25KT



MET'MAP, la Météo Aéronautique d'un coup d'oeil ! - Copyright ORBIFLY Décembre 2007 - Disclaimer

ORBIFLY MET'MAP TEAM :

Programmation & Développement : Alexandra Zaïnal
Sur une idée originale de : Baudouin d'Aumeries
Assistance à la programmation : Marc-Olivier Méhu
Soutien technique & logistique : Manuel Goepfert

Contact : metmap@orbifly.com




SOURCES & CREDITS :

   NOAA